Terminal Aerodrome Forecast
Issued by NWS

Home | Current Version | Previous Version | Text Only | Print | Product List | Glossary On
Versions: 1 2 3 4 5 6 7 8 9 10 11 12 13 14 15
384
FTUS42 KTBW 201132
TAFPIE
TAF
KPIE 201132Z 2012/2112 VRB03KT P6SM FEW025 SCT150 BKN250
     FM201500 04004KT P6SM VCTS SCT030CB SCT250
      TEMPO 2015/2019 3SM TSRA BKN025CB
     FM202100 32007KT P6SM FEW050 BKN250
     FM210200 VRB03KT P6SM SCT250=

USA.gov is the U.S. government's official web portal to all federal, state and local government web resources and services.